sensor_id;sensor_type;location;lat;lon;timestamp;P1;durP1;ratioP1;P2;durP2;ratioP2
39694;SDS011;25367;-35.352;149.036;2023-02-23T00:02:06;2.25;;;0.50;;
39694;SDS011;25367;-35.352;149.036;2023-02-23T00:04:36;4.47;;;0.52;;
39694;SDS011;25367;-35.352;149.036;2023-02-23T00:07:05;1.17;;;0.40;;
39694;SDS011;25367;-35.352;149.036;2023-02-23T00:09:35;1.50;;;0.55;;
39694;SDS011;25367;-35.352;149.036;2023-02-23T00:12:04;6.10;;;1.10;;
39694;SDS011;25367;-35.352;149.036;2023-02-23T00:14:37;1.38;;;0.43;;
39694;SDS011;25367;-35.352;149.036;2023-02-23T00:17:06;2.42;;;0.52;;
39694;SDS011;25367;-35.352;149.036;2023-02-23T00:19:35;2.60;;;0.50;;
39694;SDS011;25367;-35.352;149.036;2023-02-23T00:22:05;1.50;;;0.40;;
39694;SDS011;25367;-35.352;149.036;2023-02-23T00:24:34;1.85;;;0.50;;
39694;SDS011;25367;-35.352;149.036;2023-02-23T00:27:04;1.73;;;0.38;;
39694;SDS011;25367;-35.352;149.036;2023-02-23T00:29:36;1.17;;;0.38;;
39694;SDS011;25367;-35.352;149.036;2023-02-23T00:32:05;1.60;;;0.50;;
39694;SDS011;25367;-35.352;149.036;2023-02-23T00:34:35;1.92;;;0.50;;
39694;SDS011;25367;-35.352;149.036;2023-02-23T00:39:36;2.15;;;0.95;;
39694;SDS011;25367;-35.352;149.036;2023-02-23T00:42:06;1.50;;;0.40;;
39694;SDS011;25367;-35.352;149.036;2023-02-23T00:44:37;2.35;;;0.47;;
39694;SDS011;25367;-35.352;149.036;2023-02-23T00:47:06;0.90;;;0.40;;
39694;SDS011;25367;-35.352;149.036;2023-02-23T00:49:36;0.57;;;0.30;;
39694;SDS011;25367;-35.352;149.036;2023-02-23T00:52:05;2.40;;;0.30;;
39694;SDS011;25367;-35.352;149.036;2023-02-23T00:54:35;1.92;;;0.40;;
39694;SDS011;25367;-35.352;149.036;2023-02-23T00:57:04;3.80;;;0.52;;
39694;SDS011;25367;-35.352;149.036;2023-02-23T00:59:33;2.80;;;0.40;;
39694;SDS011;25367;-35.352;149.036;2023-02-23T01:02:05;2.13;;;0.70;;
39694;SDS011;25367;-35.352;149.036;2023-02-23T01:04:34;1.08;;;0.32;;
39694;SDS011;25367;-35.352;149.036;2023-02-23T01:07:04;0.93;;;0.35;;
39694;SDS011;25367;-35.352;149.036;2023-02-23T01:09:33;1.60;;;0.40;;
39694;SDS011;25367;-35.352;149.036;2023-02-23T01:12:05;3.25;;;0.28;;
39694;SDS011;25367;-35.352;149.036;2023-02-23T01:14:34;1.85;;;0.68;;
39694;SDS011;25367;-35.352;149.036;2023-02-23T01:17:09;4.88;;;0.40;;
39694;SDS011;25367;-35.352;149.036;2023-02-23T01:19:42;1.90;;;0.67;;
39694;SDS011;25367;-35.352;149.036;2023-02-23T01:22:13;2.47;;;0.50;;
39694;SDS011;25367;-35.352;149.036;2023-02-23T01:24:43;0.63;;;0.22;;
39694;SDS011;25367;-35.352;149.036;2023-02-23T01:27:13;4.18;;;0.50;;
39694;SDS011;25367;-35.352;149.036;2023-02-23T01:29:47;1.75;;;0.28;;
39694;SDS011;25367;-35.352;149.036;2023-02-23T01:32:34;2.88;;;0.20;;
39694;SDS011;25367;-35.352;149.036;2023-02-23T01:35:06;3.38;;;0.52;;
39694;SDS011;25367;-35.352;149.036;2023-02-23T01:37:43;0.65;;;0.22;;
39694;SDS011;25367;-35.352;149.036;2023-02-23T01:40:15;1.92;;;0.47;;
39694;SDS011;25367;-35.352;149.036;2023-02-23T01:42:46;1.67;;;0.30;;
39694;SDS011;25367;-35.352;149.036;2023-02-23T01:48:06;0.70;;;0.30;;
39694;SDS011;25367;-35.352;149.036;2023-02-23T01:50:45;1.33;;;0.38;;
39694;SDS011;25367;-35.352;149.036;2023-02-23T01:53:19;4.85;;;0.57;;
39694;SDS011;25367;-35.352;149.036;2023-02-23T01:55:51;2.83;;;0.63;;
39694;SDS011;25367;-35.352;149.036;2023-02-23T01:58:23;3.38;;;0.63;;
39694;SDS011;25367;-35.352;149.036;2023-02-23T02:00:59;2.35;;;0.35;;
39694;SDS011;25367;-35.352;149.036;2023-02-23T02:03:30;2.47;;;0.40;;
39694;SDS011;25367;-35.352;149.036;2023-02-23T02:06:03;2.58;;;0.40;;
39694;SDS011;25367;-35.352;149.036;2023-02-23T02:11:07;1.83;;;0.30;;
39694;SDS011;25367;-35.352;149.036;2023-02-23T02:13:39;2.78;;;0.60;;
39694;SDS011;25367;-35.352;149.036;2023-02-23T02:16:21;3.70;;;0.68;;
39694;SDS011;25367;-35.352;149.036;2023-02-23T02:19:22;3.15;;;0.68;;
39694;SDS011;25367;-35.352;149.036;2023-02-23T02:22:37;4.43;;;1.42;;
39694;SDS011;25367;-35.352;149.036;2023-02-23T02:25:33;2.95;;;1.00;;
39694;SDS011;25367;-35.352;149.036;2023-02-23T02:28:34;6.72;;;1.50;;
39694;SDS011;25367;-35.352;149.036;2023-02-23T02:34:27;3.90;;;1.15;;
39694;SDS011;25367;-35.352;149.036;2023-02-23T02:40:20;4.53;;;1.42;;
39694;SDS011;25367;-35.352;149.036;2023-02-23T02:43:02;2.63;;;1.17;;
39694;SDS011;25367;-35.352;149.036;2023-02-23T02:45:38;2.85;;;1.60;;
39694;SDS011;25367;-35.352;149.036;2023-02-23T02:48:13;3.75;;;1.30;;
39694;SDS011;25367;-35.352;149.036;2023-02-23T02:50:51;2.75;;;1.40;;
39694;SDS011;25367;-35.352;149.036;2023-02-23T02:53:25;5.72;;;1.73;;
39694;SDS011;25367;-35.352;149.036;2023-02-23T02:56:05;1.65;;;1.10;;
39694;SDS011;25367;-35.352;149.036;2023-02-23T02:58:37;5.40;;;1.80;;
39694;SDS011;25367;-35.352;149.036;2023-02-23T03:01:11;2.85;;;1.30;;
39694;SDS011;25367;-35.352;149.036;2023-02-23T03:03:42;5.85;;;1.42;;
39694;SDS011;25367;-35.352;149.036;2023-02-23T03:06:13;4.07;;;1.63;;
39694;SDS011;25367;-35.352;149.036;2023-02-23T03:08:45;4.40;;;1.25;;
39694;SDS011;25367;-35.352;149.036;2023-02-23T03:11:22;4.25;;;1.40;;
39694;SDS011;25367;-35.352;149.036;2023-02-23T03:14:00;2.80;;;1.50;;
39694;SDS011;25367;-35.352;149.036;2023-02-23T03:16:39;2.45;;;0.95;;
39694;SDS011;25367;-35.352;149.036;2023-02-23T03:19:14;7.28;;;1.90;;
39694;SDS011;25367;-35.352;149.036;2023-02-23T03:21:50;2.10;;;0.85;;
39694;SDS011;25367;-35.352;149.036;2023-02-23T03:24:24;3.20;;;1.38;;
39694;SDS011;25367;-35.352;149.036;2023-02-23T03:27:03;1.55;;;0.80;;
39694;SDS011;25367;-35.352;149.036;2023-02-23T03:29:41;3.83;;;1.00;;
39694;SDS011;25367;-35.352;149.036;2023-02-23T03:32:21;3.78;;;1.42;;
39694;SDS011;25367;-35.352;149.036;2023-02-23T03:34:57;5.28;;;1.58;;
39694;SDS011;25367;-35.352;149.036;2023-02-23T03:37:33;5.97;;;1.58;;
39694;SDS011;25367;-35.352;149.036;2023-02-23T03:40:10;2.42;;;0.80;;
39694;SDS011;25367;-35.352;149.036;2023-02-23T03:42:48;4.28;;;1.35;;
39694;SDS011;25367;-35.352;149.036;2023-02-23T03:45:22;4.90;;;1.15;;
39694;SDS011;25367;-35.352;149.036;2023-02-23T03:47:54;2.20;;;0.98;;
39694;SDS011;25367;-35.352;149.036;2023-02-23T03:50:27;2.78;;;1.02;;
39694;SDS011;25367;-35.352;149.036;2023-02-23T03:53:01;3.30;;;1.10;;
39694;SDS011;25367;-35.352;149.036;2023-02-23T03:55:34;2.67;;;1.00;;
39694;SDS011;25367;-35.352;149.036;2023-02-23T03:58:10;3.53;;;1.00;;
39694;SDS011;25367;-35.352;149.036;2023-02-23T04:00:43;4.38;;;1.27;;
39694;SDS011;25367;-35.352;149.036;2023-02-23T04:03:15;3.07;;;1.07;;
39694;SDS011;25367;-35.352;149.036;2023-02-23T04:05:46;4.65;;;1.48;;
39694;SDS011;25367;-35.352;149.036;2023-02-23T04:08:17;3.15;;;1.20;;
39694;SDS011;25367;-35.352;149.036;2023-02-23T04:10:49;4.22;;;1.02;;
39694;SDS011;25367;-35.352;149.036;2023-02-23T04:13:24;2.78;;;1.00;;
39694;SDS011;25367;-35.352;149.036;2023-02-23T04:15:56;2.60;;;1.23;;
39694;SDS011;25367;-35.352;149.036;2023-02-23T04:18:28;2.58;;;0.80;;
39694;SDS011;25367;-35.352;149.036;2023-02-23T04:20:59;3.35;;;1.02;;
39694;SDS011;25367;-35.352;149.036;2023-02-23T04:23:29;2.47;;;0.93;;
39694;SDS011;25367;-35.352;149.036;2023-02-23T04:25:59;3.83;;;1.33;;
39694;SDS011;25367;-35.352;149.036;2023-02-23T04:28:34;6.22;;;1.00;;
39694;SDS011;25367;-35.352;149.036;2023-02-23T04:31:05;1.92;;;0.68;;
39694;SDS011;25367;-35.352;149.036;2023-02-23T04:33:35;4.05;;;1.45;;
39694;SDS011;25367;-35.352;149.036;2023-02-23T04:36:04;2.92;;;1.10;;
39694;SDS011;25367;-35.352;149.036;2023-02-23T04:38:34;3.08;;;1.17;;
39694;SDS011;25367;-35.352;149.036;2023-02-23T04:41:04;3.35;;;0.68;;
39694;SDS011;25367;-35.352;149.036;2023-02-23T04:43:38;3.50;;;1.10;;
39694;SDS011;25367;-35.352;149.036;2023-02-23T04:46:07;4.90;;;1.17;;
39694;SDS011;25367;-35.352;149.036;2023-02-23T04:48:37;4.43;;;0.90;;
39694;SDS011;25367;-35.352;149.036;2023-02-23T04:51:07;4.50;;;0.90;;
39694;SDS011;25367;-35.352;149.036;2023-02-23T04:53:37;1.83;;;0.80;;
39694;SDS011;25367;-35.352;149.036;2023-02-23T04:56:07;3.03;;;1.25;;
39694;SDS011;25367;-35.352;149.036;2023-02-23T04:58:38;3.08;;;1.00;;
39694;SDS011;25367;-35.352;149.036;2023-02-23T05:01:09;4.90;;;1.10;;
39694;SDS011;25367;-35.352;149.036;2023-02-23T05:03:39;2.30;;;0.90;;
39694;SDS011;25367;-35.352;149.036;2023-02-23T05:06:09;1.73;;;0.85;;
39694;SDS011;25367;-35.352;149.036;2023-02-23T05:08:39;5.07;;;1.15;;
39694;SDS011;25367;-35.352;149.036;2023-02-23T05:11:08;2.95;;;0.80;;
39694;SDS011;25367;-35.352;149.036;2023-02-23T05:13:41;4.95;;;1.05;;
39694;SDS011;25367;-35.352;149.036;2023-02-23T05:16:14;5.05;;;1.20;;
39694;SDS011;25367;-35.352;149.036;2023-02-23T05:18:48;3.75;;;1.13;;
39694;SDS011;25367;-35.352;149.036;2023-02-23T05:21:20;1.65;;;0.68;;
39694;SDS011;25367;-35.352;149.036;2023-02-23T05:26:26;1.60;;;0.90;;
39694;SDS011;25367;-35.352;149.036;2023-02-23T05:28:57;1.67;;;0.73;;
39694;SDS011;25367;-35.352;149.036;2023-02-23T05:31:27;1.10;;;0.60;;
39694;SDS011;25367;-35.352;149.036;2023-02-23T05:33:57;2.97;;;1.02;;
39694;SDS011;25367;-35.352;149.036;2023-02-23T05:36:27;1.60;;;0.70;;
39694;SDS011;25367;-35.352;149.036;2023-02-23T05:38:58;2.00;;;0.77;;
39694;SDS011;25367;-35.352;149.036;2023-02-23T05:41:27;2.28;;;0.88;;
39694;SDS011;25367;-35.352;149.036;2023-02-23T05:43:59;2.05;;;0.77;;
39694;SDS011;25367;-35.352;149.036;2023-02-23T05:46:29;4.82;;;1.02;;
39694;SDS011;25367;-35.352;149.036;2023-02-23T05:48:58;4.85;;;0.90;;
39694;SDS011;25367;-35.352;149.036;2023-02-23T05:51:28;2.08;;;0.88;;
39694;SDS011;25367;-35.352;149.036;2023-02-23T05:53:59;2.22;;;0.80;;
39694;SDS011;25367;-35.352;149.036;2023-02-23T05:56:28;2.20;;;0.77;;
39694;SDS011;25367;-35.352;149.036;2023-02-23T05:59:00;2.35;;;1.00;;
39694;SDS011;25367;-35.352;149.036;2023-02-23T06:01:29;2.22;;;0.93;;
39694;SDS011;25367;-35.352;149.036;2023-02-23T06:03:59;2.53;;;0.73;;
39694;SDS011;25367;-35.352;149.036;2023-02-23T06:06:28;2.30;;;0.70;;
39694;SDS011;25367;-35.352;149.036;2023-02-23T06:08:58;1.65;;;0.50;;
39694;SDS011;25367;-35.352;149.036;2023-02-23T06:11:27;2.83;;;0.93;;
39694;SDS011;25367;-35.352;149.036;2023-02-23T06:13:57;2.08;;;0.70;;
39694;SDS011;25367;-35.352;149.036;2023-02-23T06:16:28;1.42;;;0.70;;
39694;SDS011;25367;-35.352;149.036;2023-02-23T06:18:57;1.92;;;0.60;;
39694;SDS011;25367;-35.352;149.036;2023-02-23T06:21:27;1.52;;;0.65;;
39694;SDS011;25367;-35.352;149.036;2023-02-23T06:23:56;1.38;;;0.73;;
39694;SDS011;25367;-35.352;149.036;2023-02-23T06:26:26;2.40;;;0.80;;
39694;SDS011;25367;-35.352;149.036;2023-02-23T06:28:55;6.18;;;0.95;;
39694;SDS011;25367;-35.352;149.036;2023-02-23T06:31:27;2.05;;;0.70;;
39694;SDS011;25367;-35.352;149.036;2023-02-23T06:33:56;2.08;;;0.77;;
39694;SDS011;25367;-35.352;149.036;2023-02-23T06:36:25;2.60;;;1.05;;
39694;SDS011;25367;-35.352;149.036;2023-02-23T06:38:55;1.55;;;0.70;;
39694;SDS011;25367;-35.352;149.036;2023-02-23T06:41:25;2.35;;;1.08;;
39694;SDS011;25367;-35.352;149.036;2023-02-23T06:43:54;1.88;;;0.73;;
39694;SDS011;25367;-35.352;149.036;2023-02-23T06:46:24;4.60;;;0.65;;
39694;SDS011;25367;-35.352;149.036;2023-02-23T06:48:55;2.75;;;0.75;;
39694;SDS011;25367;-35.352;149.036;2023-02-23T06:51:24;4.10;;;1.30;;
39694;SDS011;25367;-35.352;149.036;2023-02-23T06:53:54;4.65;;;0.73;;
39694;SDS011;25367;-35.352;149.036;2023-02-23T06:56:23;2.80;;;0.68;;
39694;SDS011;25367;-35.352;149.036;2023-02-23T06:58:53;2.47;;;0.60;;
39694;SDS011;25367;-35.352;149.036;2023-02-23T07:01:22;2.90;;;0.75;;
39694;SDS011;25367;-35.352;149.036;2023-02-23T07:03:53;5.88;;;1.35;;
39694;SDS011;25367;-35.352;149.036;2023-02-23T07:06:24;2.60;;;0.73;;
39694;SDS011;25367;-35.352;149.036;2023-02-23T07:08:56;3.95;;;0.80;;
39694;SDS011;25367;-35.352;149.036;2023-02-23T07:11:25;1.98;;;0.60;;
39694;SDS011;25367;-35.352;149.036;2023-02-23T07:13:56;3.33;;;1.00;;
39694;SDS011;25367;-35.352;149.036;2023-02-23T07:16:26;2.78;;;1.10;;
39694;SDS011;25367;-35.352;149.036;2023-02-23T07:18:57;4.50;;;1.17;;
39694;SDS011;25367;-35.352;149.036;2023-02-23T07:21:27;11.27;;;2.03;;
39694;SDS011;25367;-35.352;149.036;2023-02-23T07:23:57;3.72;;;1.23;;
39694;SDS011;25367;-35.352;149.036;2023-02-23T07:26:27;5.03;;;1.90;;
39694;SDS011;25367;-35.352;149.036;2023-02-23T07:28:57;8.05;;;2.30;;
39694;SDS011;25367;-35.352;149.036;2023-02-23T07:31:27;10.38;;;3.20;;
39694;SDS011;25367;-35.352;149.036;2023-02-23T07:33:58;11.40;;;2.22;;
39694;SDS011;25367;-35.352;149.036;2023-02-23T07:36:28;5.47;;;2.30;;
39694;SDS011;25367;-35.352;149.036;2023-02-23T07:38:57;6.80;;;2.40;;
39694;SDS011;25367;-35.352;149.036;2023-02-23T07:41:27;9.00;;;2.45;;
39694;SDS011;25367;-35.352;149.036;2023-02-23T07:43:57;5.72;;;1.63;;
39694;SDS011;25367;-35.352;149.036;2023-02-23T07:46:27;5.43;;;2.00;;
39694;SDS011;25367;-35.352;149.036;2023-02-23T07:48:56;7.32;;;2.10;;
39694;SDS011;25367;-35.352;149.036;2023-02-23T07:51:27;9.77;;;2.13;;
39694;SDS011;25367;-35.352;149.036;2023-02-23T07:54:00;6.13;;;1.80;;
39694;SDS011;25367;-35.352;149.036;2023-02-23T07:56:31;8.02;;;2.20;;
39694;SDS011;25367;-35.352;149.036;2023-02-23T07:59:00;8.23;;;1.98;;
39694;SDS011;25367;-35.352;149.036;2023-02-23T08:01:30;9.05;;;2.50;;
39694;SDS011;25367;-35.352;149.036;2023-02-23T08:04:01;7.75;;;2.00;;
39694;SDS011;25367;-35.352;149.036;2023-02-23T08:06:31;9.32;;;1.58;;
39694;SDS011;25367;-35.352;149.036;2023-02-23T08:09:01;5.97;;;2.00;;
39694;SDS011;25367;-35.352;149.036;2023-02-23T08:11:31;6.68;;;2.10;;
39694;SDS011;25367;-35.352;149.036;2023-02-23T08:14:00;11.30;;;2.15;;
39694;SDS011;25367;-35.352;149.036;2023-02-23T08:16:30;8.65;;;2.45;;
39694;SDS011;25367;-35.352;149.036;2023-02-23T08:19:01;9.30;;;1.90;;
39694;SDS011;25367;-35.352;149.036;2023-02-23T08:21:31;10.25;;;2.40;;
39694;SDS011;25367;-35.352;149.036;2023-02-23T08:24:00;8.07;;;2.03;;
39694;SDS011;25367;-35.352;149.036;2023-02-23T08:26:29;4.80;;;1.40;;
39694;SDS011;25367;-35.352;149.036;2023-02-23T08:29:01;5.72;;;1.60;;
39694;SDS011;25367;-35.352;149.036;2023-02-23T08:31:31;8.65;;;2.28;;
39694;SDS011;25367;-35.352;149.036;2023-02-23T08:34:02;10.88;;;1.80;;
39694;SDS011;25367;-35.352;149.036;2023-02-23T08:36:32;7.10;;;1.77;;
39694;SDS011;25367;-35.352;149.036;2023-02-23T08:39:01;13.35;;;2.17;;
39694;SDS011;25367;-35.352;149.036;2023-02-23T08:41:31;6.10;;;1.52;;
39694;SDS011;25367;-35.352;149.036;2023-02-23T08:44:01;12.18;;;2.17;;
39694;SDS011;25367;-35.352;149.036;2023-02-23T08:46:30;3.83;;;1.55;;
39694;SDS011;25367;-35.352;149.036;2023-02-23T08:49:00;10.80;;;1.85;;
39694;SDS011;25367;-35.352;149.036;2023-02-23T08:51:32;8.13;;;1.88;;
39694;SDS011;25367;-35.352;149.036;2023-02-23T08:54:01;8.52;;;1.95;;
39694;SDS011;25367;-35.352;149.036;2023-02-23T08:56:30;6.57;;;1.60;;
39694;SDS011;25367;-35.352;149.036;2023-02-23T08:59:00;5.25;;;1.50;;
39694;SDS011;25367;-35.352;149.036;2023-02-23T09:01:29;5.63;;;1.70;;
39694;SDS011;25367;-35.352;149.036;2023-02-23T09:03:59;6.45;;;1.58;;
39694;SDS011;25367;-35.352;149.036;2023-02-23T09:06:31;6.78;;;1.92;;
39694;SDS011;25367;-35.352;149.036;2023-02-23T09:09:00;5.95;;;1.60;;
39694;SDS011;25367;-35.352;149.036;2023-02-23T09:11:30;3.55;;;1.10;;
39694;SDS011;25367;-35.352;149.036;2023-02-23T09:13:59;6.43;;;1.98;;
39694;SDS011;25367;-35.352;149.036;2023-02-23T09:16:29;6.13;;;1.63;;
39694;SDS011;25367;-35.352;149.036;2023-02-23T09:18:58;4.85;;;1.80;;
39694;SDS011;25367;-35.352;149.036;2023-02-23T09:21:28;7.20;;;1.70;;
39694;SDS011;25367;-35.352;149.036;2023-02-23T09:24:01;7.15;;;1.50;;
39694;SDS011;25367;-35.352;149.036;2023-02-23T09:26:30;12.70;;;1.48;;
39694;SDS011;25367;-35.352;149.036;2023-02-23T09:29:00;9.05;;;1.65;;
39694;SDS011;25367;-35.352;149.036;2023-02-23T09:31:30;6.10;;;1.45;;
39694;SDS011;25367;-35.352;149.036;2023-02-23T09:33:59;6.00;;;1.48;;
39694;SDS011;25367;-35.352;149.036;2023-02-23T09:36:29;5.82;;;1.52;;
39694;SDS011;25367;-35.352;149.036;2023-02-23T09:39:00;3.42;;;1.35;;
39694;SDS011;25367;-35.352;149.036;2023-02-23T09:44:22;4.80;;;1.23;;
39694;SDS011;25367;-35.352;149.036;2023-02-23T09:47:04;8.13;;;1.73;;
39694;SDS011;25367;-35.352;149.036;2023-02-23T09:49:44;4.43;;;1.25;;
39694;SDS011;25367;-35.352;149.036;2023-02-23T09:52:18;5.90;;;1.53;;
39694;SDS011;25367;-35.352;149.036;2023-02-23T09:54:50;5.68;;;1.27;;
39694;SDS011;25367;-35.352;149.036;2023-02-23T09:57:22;5.07;;;1.20;;
39694;SDS011;25367;-35.352;149.036;2023-02-23T09:59:58;9.57;;;1.55;;
39694;SDS011;25367;-35.352;149.036;2023-02-23T10:02:27;2.92;;;1.05;;
39694;SDS011;25367;-35.352;149.036;2023-02-23T10:05:01;5.45;;;1.08;;
39694;SDS011;25367;-35.352;149.036;2023-02-23T10:07:39;3.88;;;1.33;;
39694;SDS011;25367;-35.352;149.036;2023-02-23T10:10:16;2.75;;;1.10;;
39694;SDS011;25367;-35.352;149.036;2023-02-23T10:12:55;5.22;;;1.20;;
39694;SDS011;25367;-35.352;149.036;2023-02-23T10:15:32;1.77;;;0.45;;
39694;SDS011;25367;-35.352;149.036;2023-02-23T10:18:08;5.53;;;1.10;;
39694;SDS011;25367;-35.352;149.036;2023-02-23T10:20:47;5.47;;;1.30;;
39694;SDS011;25367;-35.352;149.036;2023-02-23T10:23:28;3.33;;;0.88;;
39694;SDS011;25367;-35.352;149.036;2023-02-23T10:26:01;5.95;;;1.25;;
39694;SDS011;25367;-35.352;149.036;2023-02-23T10:28:33;5.60;;;0.98;;
39694;SDS011;25367;-35.352;149.036;2023-02-23T10:31:03;5.00;;;1.10;;
39694;SDS011;25367;-35.352;149.036;2023-02-23T10:33:50;3.88;;;1.40;;
39694;SDS011;25367;-35.352;149.036;2023-02-23T10:36:26;5.03;;;1.33;;
39694;SDS011;25367;-35.352;149.036;2023-02-23T10:39:06;5.50;;;1.08;;
39694;SDS011;25367;-35.352;149.036;2023-02-23T10:41:38;5.65;;;1.27;;
39694;SDS011;25367;-35.352;149.036;2023-02-23T10:44:13;5.43;;;1.20;;
39694;SDS011;25367;-35.352;149.036;2023-02-23T10:46:48;7.20;;;1.50;;
39694;SDS011;25367;-35.352;149.036;2023-02-23T10:49:21;6.38;;;1.30;;
39694;SDS011;25367;-35.352;149.036;2023-02-23T10:51:54;7.55;;;1.90;;
39694;SDS011;25367;-35.352;149.036;2023-02-23T10:54:38;7.60;;;1.25;;
39694;SDS011;25367;-35.352;149.036;2023-02-23T10:57:11;3.08;;;0.80;;
39694;SDS011;25367;-35.352;149.036;2023-02-23T11:00:00;3.97;;;0.88;;
39694;SDS011;25367;-35.352;149.036;2023-02-23T11:02:47;3.78;;;0.98;;
39694;SDS011;25367;-35.352;149.036;2023-02-23T11:05:26;3.50;;;0.98;;
39694;SDS011;25367;-35.352;149.036;2023-02-23T11:08:16;3.20;;;1.27;;
39694;SDS011;25367;-35.352;149.036;2023-02-23T11:13:50;4.70;;;0.82;;
39694;SDS011;25367;-35.352;149.036;2023-02-23T11:16:19;2.13;;;0.88;;
39694;SDS011;25367;-35.352;149.036;2023-02-23T11:18:50;4.15;;;1.13;;
39694;SDS011;25367;-35.352;149.036;2023-02-23T11:21:25;3.78;;;1.08;;
39694;SDS011;25367;-35.352;149.036;2023-02-23T11:23:56;3.40;;;0.85;;
39694;SDS011;25367;-35.352;149.036;2023-02-23T11:26:38;3.78;;;0.88;;
39694;SDS011;25367;-35.352;149.036;2023-02-23T11:29:11;4.20;;;1.40;;
39694;SDS011;25367;-35.352;149.036;2023-02-23T11:31:47;5.10;;;1.10;;
39694;SDS011;25367;-35.352;149.036;2023-02-23T11:34:21;3.72;;;1.08;;
39694;SDS011;25367;-35.352;149.036;2023-02-23T11:36:58;3.53;;;1.00;;
39694;SDS011;25367;-35.352;149.036;2023-02-23T11:39:29;9.57;;;1.50;;
39694;SDS011;25367;-35.352;149.036;2023-02-23T11:42:16;6.05;;;1.30;;
39694;SDS011;25367;-35.352;149.036;2023-02-23T11:44:50;5.63;;;1.20;;
39694;SDS011;25367;-35.352;149.036;2023-02-23T11:47:28;3.80;;;0.97;;
39694;SDS011;25367;-35.352;149.036;2023-02-23T11:50:00;3.55;;;1.25;;
39694;SDS011;25367;-35.352;149.036;2023-02-23T11:52:32;3.25;;;1.02;;
39694;SDS011;25367;-35.352;149.036;2023-02-23T11:55:05;4.65;;;1.25;;
39694;SDS011;25367;-35.352;149.036;2023-02-23T11:57:45;2.95;;;0.95;;
39694;SDS011;25367;-35.352;149.036;2023-02-23T12:00:20;5.60;;;1.05;;
39694;SDS011;25367;-35.352;149.036;2023-02-23T12:02:53;5.25;;;1.05;;
39694;SDS011;25367;-35.352;149.036;2023-02-23T12:05:25;3.67;;;1.20;;
39694;SDS011;25367;-35.352;149.036;2023-02-23T12:07:58;5.03;;;1.27;;
39694;SDS011;25367;-35.352;149.036;2023-02-23T12:10:33;4.28;;;0.88;;
39694;SDS011;25367;-35.352;149.036;2023-02-23T12:15:58;5.15;;;1.42;;
39694;SDS011;25367;-35.352;149.036;2023-02-23T12:18:39;5.25;;;1.02;;
39694;SDS011;25367;-35.352;149.036;2023-02-23T12:21:28;2.92;;;1.08;;
39694;SDS011;25367;-35.352;149.036;2023-02-23T12:24:09;4.13;;;1.02;;
39694;SDS011;25367;-35.352;149.036;2023-02-23T12:26:45;5.38;;;1.50;;
39694;SDS011;25367;-35.352;149.036;2023-02-23T12:29:24;3.13;;;1.00;;
39694;SDS011;25367;-35.352;149.036;2023-02-23T12:31:58;4.97;;;1.20;;
39694;SDS011;25367;-35.352;149.036;2023-02-23T12:34:31;6.22;;;1.48;;
39694;SDS011;25367;-35.352;149.036;2023-02-23T12:37:16;2.92;;;1.08;;
39694;SDS011;25367;-35.352;149.036;2023-02-23T12:39:55;5.03;;;1.10;;
39694;SDS011;25367;-35.352;149.036;2023-02-23T12:42:34;3.85;;;1.08;;
39694;SDS011;25367;-35.352;149.036;2023-02-23T12:45:09;4.50;;;1.27;;
39694;SDS011;25367;-35.352;149.036;2023-02-23T12:47:45;6.13;;;1.60;;
39694;SDS011;25367;-35.352;149.036;2023-02-23T12:50:22;2.63;;;0.77;;
39694;SDS011;25367;-35.352;149.036;2023-02-23T12:52:55;2.75;;;0.73;;
39694;SDS011;25367;-35.352;149.036;2023-02-23T12:55:29;2.85;;;0.82;;
39694;SDS011;25367;-35.352;149.036;2023-02-23T12:58:03;3.70;;;1.05;;
39694;SDS011;25367;-35.352;149.036;2023-02-23T13:00:44;3.47;;;0.93;;
39694;SDS011;25367;-35.352;149.036;2023-02-23T13:06:19;3.10;;;0.90;;
39694;SDS011;25367;-35.352;149.036;2023-02-23T13:08:57;4.30;;;1.15;;
39694;SDS011;25367;-35.352;149.036;2023-02-23T13:11:39;5.43;;;1.33;;
39694;SDS011;25367;-35.352;149.036;2023-02-23T13:14:27;4.67;;;1.30;;
39694;SDS011;25367;-35.352;149.036;2023-02-23T13:17:04;2.80;;;0.90;;
39694;SDS011;25367;-35.352;149.036;2023-02-23T13:19:44;4.80;;;1.23;;
39694;SDS011;25367;-35.352;149.036;2023-02-23T13:22:22;4.47;;;0.98;;
39694;SDS011;25367;-35.352;149.036;2023-02-23T13:24:56;3.83;;;1.10;;
39694;SDS011;25367;-35.352;149.036;2023-02-23T13:27:29;1.88;;;0.77;;
39694;SDS011;25367;-35.352;149.036;2023-02-23T13:30:04;3.42;;;0.98;;
39694;SDS011;25367;-35.352;149.036;2023-02-23T13:32:40;3.90;;;0.70;;
39694;SDS011;25367;-35.352;149.036;2023-02-23T13:35:12;4.15;;;1.20;;
39694;SDS011;25367;-35.352;149.036;2023-02-23T13:37:43;4.07;;;0.95;;
39694;SDS011;25367;-35.352;149.036;2023-02-23T13:40:19;3.80;;;1.00;;
39694;SDS011;25367;-35.352;149.036;2023-02-23T13:42:58;3.28;;;1.00;;
39694;SDS011;25367;-35.352;149.036;2023-02-23T13:45:42;3.58;;;0.75;;
39694;SDS011;25367;-35.352;149.036;2023-02-23T13:48:45;3.28;;;0.75;;
39694;SDS011;25367;-35.352;149.036;2023-02-23T13:51:22;2.90;;;0.93;;
39694;SDS011;25367;-35.352;149.036;2023-02-23T13:53:59;2.88;;;0.57;;
39694;SDS011;25367;-35.352;149.036;2023-02-23T13:56:31;3.63;;;1.08;;
39694;SDS011;25367;-35.352;149.036;2023-02-23T13:59:08;3.80;;;1.15;;
39694;SDS011;25367;-35.352;149.036;2023-02-23T14:01:47;2.88;;;0.95;;
39694;SDS011;25367;-35.352;149.036;2023-02-23T14:04:22;2.90;;;0.63;;
39694;SDS011;25367;-35.352;149.036;2023-02-23T14:06:53;3.15;;;0.90;;
39694;SDS011;25367;-35.352;149.036;2023-02-23T14:09:28;4.47;;;0.80;;
39694;SDS011;25367;-35.352;149.036;2023-02-23T14:12:03;5.00;;;1.20;;
39694;SDS011;25367;-35.352;149.036;2023-02-23T14:14:41;3.83;;;0.60;;
39694;SDS011;25367;-35.352;149.036;2023-02-23T14:20:34;4.10;;;0.80;;
39694;SDS011;25367;-35.352;149.036;2023-02-23T14:23:27;2.53;;;0.77;;
39694;SDS011;25367;-35.352;149.036;2023-02-23T14:26:16;3.90;;;1.02;;
39694;SDS011;25367;-35.352;149.036;2023-02-23T14:31:58;2.53;;;0.80;;
39694;SDS011;25367;-35.352;149.036;2023-02-23T14:37:22;1.83;;;0.70;;
39694;SDS011;25367;-35.352;149.036;2023-02-23T14:39:54;2.25;;;1.08;;
39694;SDS011;25367;-35.352;149.036;2023-02-23T14:42:28;1.13;;;0.55;;
39694;SDS011;25367;-35.352;149.036;2023-02-23T14:45:01;2.50;;;0.77;;
39694;SDS011;25367;-35.352;149.036;2023-02-23T14:47:39;2.53;;;0.75;;
39694;SDS011;25367;-35.352;149.036;2023-02-23T14:50:13;1.88;;;0.65;;
39694;SDS011;25367;-35.352;149.036;2023-02-23T14:52:51;1.80;;;0.68;;
39694;SDS011;25367;-35.352;149.036;2023-02-23T14:55:23;3.10;;;0.95;;
39694;SDS011;25367;-35.352;149.036;2023-02-23T14:57:54;1.93;;;0.83;;
39694;SDS011;25367;-35.352;149.036;2023-02-23T15:00:25;2.78;;;0.75;;
39694;SDS011;25367;-35.352;149.036;2023-02-23T15:02:57;2.58;;;0.70;;
39694;SDS011;25367;-35.352;149.036;2023-02-23T15:05:27;1.92;;;0.80;;
39694;SDS011;25367;-35.352;149.036;2023-02-23T15:08:02;2.25;;;0.88;;
39694;SDS011;25367;-35.352;149.036;2023-02-23T15:10:34;2.40;;;0.63;;
39694;SDS011;25367;-35.352;149.036;2023-02-23T15:13:09;1.70;;;0.68;;
39694;SDS011;25367;-35.352;149.036;2023-02-23T15:15:44;1.20;;;0.50;;
39694;SDS011;25367;-35.352;149.036;2023-02-23T15:18:17;3.40;;;0.70;;
39694;SDS011;25367;-35.352;149.036;2023-02-23T15:20:50;2.15;;;0.77;;
39694;SDS011;25367;-35.352;149.036;2023-02-23T15:23:22;2.05;;;0.95;;